createdAt,value
2019-03-19T00:02:29.731Z,0.90
2019-03-19T00:04:58.972Z,0.90
2019-03-19T00:07:28.255Z,0.90
2019-03-19T00:09:57.530Z,0.90
2019-03-19T00:12:26.802Z,0.90
2019-03-19T00:14:56.091Z,0.90
2019-03-19T00:17:25.334Z,0.80
2019-03-19T00:19:54.599Z,0.80
2019-03-19T00:22:25.690Z,0.80
2019-03-19T00:24:54.798Z,0.70
2019-03-19T00:27:24.031Z,0.70
2019-03-19T00:29:53.304Z,0.70
2019-03-19T00:32:22.610Z,0.70
2019-03-19T00:34:51.881Z,0.70
2019-03-19T00:37:21.098Z,0.70
2019-03-19T00:39:50.395Z,0.80
2019-03-19T00:42:19.645Z,0.70
2019-03-19T00:44:48.908Z,0.70
2019-03-19T00:47:18.138Z,0.70
2019-03-19T00:49:47.398Z,0.60
2019-03-19T00:52:16.633Z,0.60
2019-03-19T00:54:46.102Z,0.60
2019-03-19T00:57:15.335Z,0.60
2019-03-19T00:59:44.595Z,0.70
2019-03-19T01:02:13.827Z,0.60
2019-03-19T01:04:43.111Z,0.60
2019-03-19T01:07:12.375Z,0.60
2019-03-19T01:09:41.691Z,0.60
2019-03-19T01:12:10.963Z,0.50
2019-03-19T01:14:40.211Z,0.50
2019-03-19T01:17:09.548Z,0.40
2019-03-19T01:19:38.807Z,0.40
2019-03-19T01:22:08.038Z,0.40
2019-03-19T01:24:37.279Z,0.50
2019-03-19T01:27:06.546Z,0.40
2019-03-19T01:29:35.777Z,0.50
2019-03-19T01:32:05.132Z,0.40
2019-03-19T01:34:34.436Z,0.40
2019-03-19T01:37:03.703Z,0.40
2019-03-19T01:39:32.967Z,0.30
2019-03-19T01:42:02.222Z,0.30
2019-03-19T01:44:31.394Z,0.30
2019-03-19T01:47:00.677Z,0.30
2019-03-19T01:49:29.930Z,0.30
2019-03-19T01:51:59.187Z,0.30
2019-03-19T01:54:28.366Z,0.30
2019-03-19T01:56:57.628Z,0.30
2019-03-19T01:59:26.856Z,0.20
2019-03-19T02:01:56.128Z,0.20
2019-03-19T02:04:25.408Z,0.20
2019-03-19T02:06:54.757Z,0.20
2019-03-19T02:09:24.060Z,0.20
2019-03-19T02:11:53.318Z,0.20
2019-03-19T02:14:22.564Z,0.20
2019-03-19T02:16:51.820Z,0.10
2019-03-19T02:19:21.048Z,0.10
2019-03-19T02:21:50.283Z,0.00
2019-03-19T02:24:19.573Z,0.00
2019-03-19T02:26:48.808Z,0.00
2019-03-19T02:29:18.071Z,0.00
2019-03-19T02:31:47.316Z,-0.10
2019-03-19T02:34:16.665Z,-0.10
2019-03-19T02:36:45.902Z,-0.10
2019-03-19T02:39:15.183Z,-0.10
2019-03-19T02:41:44.425Z,-0.10
2019-03-19T02:44:13.701Z,-0.10
2019-03-19T02:46:43.015Z,-0.20
2019-03-19T02:49:12.393Z,-0.10
2019-03-19T02:51:41.707Z,-0.10
2019-03-19T02:54:10.995Z,-0.10
2019-03-19T02:56:40.240Z,-0.20
2019-03-19T02:59:09.508Z,-0.20
2019-03-19T03:01:38.743Z,-0.20
2019-03-19T03:04:08.009Z,-0.20
2019-03-19T03:06:37.275Z,-0.30
2019-03-19T03:09:07.665Z,-0.20
2019-03-19T03:11:36.903Z,-0.20
2019-03-19T03:14:06.180Z,-0.20
2019-03-19T03:16:35.421Z,-0.20
2019-03-19T03:19:04.764Z,-0.20
2019-03-19T03:21:34.743Z,-0.20
2019-03-19T03:24:04.252Z,-0.20
2019-03-19T03:26:46.867Z,-0.20
2019-03-19T03:29:04.578Z,-0.30
2019-03-19T03:31:33.887Z,-0.30
2019-03-19T03:34:03.206Z,-0.30
2019-03-19T03:36:32.533Z,-0.40
2019-03-19T03:39:01.775Z,-0.40
2019-03-19T03:41:31.344Z,-0.40
2019-03-19T03:44:00.606Z,-0.40
2019-03-19T03:46:29.942Z,-0.40
2019-03-19T03:48:59.171Z,-0.40
2019-03-19T03:51:28.511Z,-0.40
2019-03-19T03:53:57.774Z,-0.40
2019-03-19T03:56:27.215Z,-0.40
2019-03-19T03:59:00.927Z,-0.50
2019-03-19T04:01:27.719Z,-0.50
2019-03-19T04:03:57.046Z,-0.60
2019-03-19T04:06:26.261Z,-0.60
2019-03-19T04:08:55.577Z,-0.60
2019-03-19T04:11:24.929Z,-0.50
2019-03-19T04:13:54.170Z,-0.50
2019-03-19T04:16:23.506Z,-0.50
2019-03-19T04:18:52.773Z,-0.50
2019-03-19T04:21:22.096Z,-0.50
2019-03-19T04:23:51.437Z,-0.60
2019-03-19T04:26:20.764Z,-0.60
2019-03-19T04:28:52.373Z,-0.60
2019-03-19T04:31:21.698Z,-0.70
2019-03-19T04:33:50.955Z,-0.70
2019-03-19T04:36:20.184Z,-0.70
2019-03-19T04:38:49.415Z,-0.70
2019-03-19T04:41:18.680Z,-0.70
2019-03-19T04:43:48.035Z,-0.70
2019-03-19T04:46:17.269Z,-0.70
2019-03-19T04:48:46.591Z,-0.70
2019-03-19T04:51:15.857Z,-0.70
2019-03-19T04:53:45.156Z,-0.70
2019-03-19T04:56:14.496Z,-0.60
2019-03-19T04:58:43.836Z,-0.70
2019-03-19T05:01:13.080Z,-0.70
2019-03-19T05:03:42.267Z,-0.70
2019-03-19T05:06:11.562Z,-0.70
2019-03-19T05:08:40.827Z,-0.80
2019-03-19T05:11:10.140Z,-0.80
2019-03-19T05:13:39.426Z,-0.80
2019-03-19T05:16:08.663Z,-0.80
2019-03-19T05:18:38.040Z,-0.80
2019-03-19T05:21:07.278Z,-0.80
2019-03-19T05:23:36.538Z,-0.90
2019-03-19T05:26:05.780Z,-0.90
2019-03-19T05:28:35.039Z,-0.90
2019-03-19T05:31:04.281Z,-0.90
2019-03-19T05:33:33.542Z,-1.00
2019-03-19T05:36:02.836Z,-1.00
2019-03-19T05:38:32.114Z,-1.00
2019-03-19T05:41:01.431Z,-0.90
2019-03-19T05:43:30.686Z,-0.90
2019-03-19T05:46:00.068Z,-0.90
2019-03-19T05:48:29.325Z,-0.80
2019-03-19T05:50:58.552Z,-0.80
2019-03-19T05:53:27.842Z,-0.70
2019-03-19T05:55:57.112Z,-0.70
2019-03-19T05:58:26.383Z,-0.70
2019-03-19T06:00:55.614Z,-0.70
2019-03-19T06:03:24.873Z,-0.70
2019-03-19T06:05:54.146Z,-0.70
2019-03-19T06:08:23.416Z,-0.70
2019-03-19T06:10:52.649Z,-0.70
2019-03-19T06:13:21.878Z,-0.60
2019-03-19T06:15:51.147Z,-0.50
2019-03-19T06:18:20.378Z,-0.40
2019-03-19T06:20:49.649Z,-0.30
2019-03-19T06:23:18.884Z,-0.20
2019-03-19T06:25:48.141Z,-0.10
2019-03-19T06:28:17.366Z,0.10
2019-03-19T06:30:46.626Z,0.40
2019-03-19T06:33:15.802Z,0.70
2019-03-19T06:35:45.138Z,0.90
2019-03-19T06:38:14.474Z,1.00
2019-03-19T06:40:43.825Z,1.00
2019-03-19T06:43:13.063Z,1.10
2019-03-19T06:45:42.339Z,1.40
2019-03-19T06:48:11.571Z,1.70
2019-03-19T06:50:45.181Z,2.00
2019-03-19T06:53:11.867Z,2.30
2019-03-19T06:55:41.142Z,2.50
2019-03-19T06:58:11.375Z,2.90
2019-03-19T07:00:40.857Z,3.10
2019-03-19T07:03:10.162Z,3.20
2019-03-19T07:05:39.418Z,3.40
2019-03-19T07:08:08.646Z,3.60
2019-03-19T07:10:37.909Z,3.80
2019-03-19T07:13:07.134Z,3.90
2019-03-19T07:15:36.407Z,4.10
2019-03-19T07:18:05.806Z,4.30
2019-03-19T07:20:35.177Z,4.40
2019-03-19T07:23:04.656Z,4.60
2019-03-19T07:25:33.913Z,4.70
2019-03-19T07:28:03.181Z,4.80
2019-03-19T07:30:32.442Z,4.90
2019-03-19T07:33:01.687Z,5.10
2019-03-19T07:35:30.950Z,5.20
2019-03-19T07:38:00.207Z,5.30
2019-03-19T07:40:29.441Z,5.40
2019-03-19T07:42:58.699Z,5.40
2019-03-19T07:45:27.935Z,5.50
2019-03-19T07:47:57.211Z,5.70
2019-03-19T07:50:26.438Z,5.70
2019-03-19T07:52:55.801Z,5.70
2019-03-19T07:55:25.132Z,5.90
2019-03-19T07:57:54.395Z,6.00
2019-03-19T08:00:23.933Z,6.10
2019-03-19T08:02:53.242Z,6.10
2019-03-19T08:05:32.591Z,5.90
2019-03-19T08:07:53.490Z,5.70
2019-03-19T08:10:22.688Z,5.70
2019-03-19T08:12:51.953Z,5.60
2019-03-19T08:15:21.193Z,5.50
2019-03-19T08:17:50.921Z,5.50
2019-03-19T08:20:21.273Z,5.40
2019-03-19T08:22:50.637Z,5.50
2019-03-19T08:25:19.866Z,5.50
2019-03-19T08:27:49.051Z,5.60
2019-03-19T08:30:18.288Z,5.60
2019-03-19T08:32:47.750Z,5.60
2019-03-19T08:35:16.990Z,5.70
2019-03-19T08:37:46.333Z,5.80
2019-03-19T08:40:15.581Z,5.80
2019-03-19T08:42:44.903Z,5.80
2019-03-19T08:45:14.425Z,5.90
2019-03-19T12:03:15.780Z,9.70
2019-03-19T12:05:42.057Z,9.90
2019-03-19T12:08:11.231Z,10.20
2019-03-19T12:10:40.462Z,10.40
2019-03-19T12:13:09.778Z,10.60
2019-03-19T12:15:38.923Z,10.60
2019-03-19T12:18:08.585Z,10.70
2019-03-19T12:20:37.941Z,10.60
2019-03-19T12:23:07.219Z,10.60
2019-03-19T12:25:37.429Z,10.50
2019-03-19T12:28:06.729Z,10.50
2019-03-19T12:30:35.960Z,10.50
2019-03-19T12:33:05.383Z,10.50
2019-03-19T12:35:34.622Z,10.70
2019-03-19T12:38:03.765Z,10.90
2019-03-19T12:40:37.195Z,10.90
2019-03-19T12:43:03.901Z,10.60
2019-03-19T12:45:33.147Z,10.50
2019-03-19T12:48:02.310Z,10.30
2019-03-19T12:50:31.479Z,10.20
2019-03-19T12:53:00.714Z,10.30
2019-03-19T12:55:29.923Z,10.30
2019-03-19T12:58:01.219Z,10.20
2019-03-19T13:00:34.660Z,10.20
2019-03-19T13:03:00.935Z,10.40
2019-03-19T13:05:30.107Z,10.50
2019-03-19T13:07:59.266Z,10.70
2019-03-19T13:10:28.502Z,10.70
2019-03-19T13:12:57.729Z,10.70
2019-03-19T13:15:26.973Z,10.80
2019-03-19T13:17:56.119Z,10.90
2019-03-19T13:20:25.285Z,10.90
2019-03-19T13:22:54.425Z,10.80
2019-03-19T13:25:23.695Z,10.80
2019-03-19T13:27:52.838Z,10.80
2019-03-19T13:30:22.077Z,10.80
2019-03-19T13:32:51.364Z,10.70
2019-03-19T13:35:20.545Z,10.70
2019-03-19T13:37:49.759Z,10.60
2019-03-19T13:40:19.092Z,10.60
2019-03-19T13:42:48.260Z,10.60
2019-03-19T13:45:17.504Z,10.60
2019-03-19T13:47:46.741Z,10.40
2019-03-19T13:50:16.311Z,10.50
2019-03-19T13:52:45.482Z,10.50
2019-03-19T13:55:16.639Z,10.40
2019-03-19T13:57:45.801Z,10.30
2019-03-19T14:00:15.289Z,10.20
2019-03-19T14:02:44.662Z,10.10
2019-03-19T14:05:14.026Z,10.00
2019-03-19T14:07:43.304Z,10.00
2019-03-19T14:10:12.692Z,10.00
2019-03-19T14:12:41.877Z,9.90
2019-03-19T14:15:12.930Z,9.80
2019-03-19T14:17:42.099Z,9.70
2019-03-19T14:20:12.857Z,9.80
2019-03-19T14:22:42.018Z,9.80
2019-03-19T14:25:11.401Z,9.80
2019-03-19T14:27:40.653Z,10.00
2019-03-19T14:30:12.482Z,10.00
2019-03-19T14:32:41.729Z,10.10
2019-03-19T14:35:10.870Z,10.10
2019-03-19T14:37:40.198Z,10.10
2019-03-19T14:40:11.043Z,10.20
2019-03-19T14:42:40.210Z,10.20
2019-03-19T14:45:09.482Z,10.10
2019-03-19T14:47:38.655Z,10.10
2019-03-19T14:50:08.640Z,10.20
2019-03-19T14:52:37.906Z,10.00
2019-03-19T14:55:07.251Z,10.10
2019-03-19T14:57:36.422Z,10.20
2019-03-19T15:00:07.446Z,10.20
2019-03-19T15:02:36.698Z,10.20
2019-03-19T15:05:06.390Z,10.20
2019-03-19T15:07:35.530Z,10.20
2019-03-19T15:10:05.420Z,10.20
2019-03-19T15:12:34.634Z,10.20
2019-03-19T15:15:04.313Z,10.20
2019-03-19T15:17:33.454Z,10.10
2019-03-19T15:20:02.634Z,10.10
2019-03-19T15:22:32.729Z,10.00
2019-03-19T15:25:02.394Z,10.00
2019-03-19T15:27:31.548Z,10.00
2019-03-19T15:30:00.791Z,10.00
2019-03-19T15:32:30.005Z,9.90
2019-03-19T15:34:59.173Z,9.80
2019-03-19T15:37:28.386Z,9.80
2019-03-19T15:39:57.550Z,9.70
2019-03-19T15:42:26.730Z,9.60
2019-03-19T15:44:55.893Z,9.60
2019-03-19T15:47:25.107Z,9.60
2019-03-19T15:49:54.279Z,9.60
2019-03-19T15:52:23.502Z,9.50
2019-03-19T15:54:52.776Z,9.50
2019-03-19T15:57:21.954Z,9.50
2019-03-19T15:59:51.190Z,9.50
2019-03-19T16:02:20.406Z,9.40
2019-03-19T16:04:49.682Z,9.40
2019-03-19T16:07:18.901Z,9.30
2019-03-19T16:09:48.058Z,9.30
2019-03-19T16:12:17.271Z,9.30
2019-03-19T16:14:46.446Z,9.20
2019-03-19T16:17:15.587Z,9.20
2019-03-19T16:19:44.719Z,9.10
2019-03-19T16:22:14.277Z,9.10
2019-03-19T16:24:43.416Z,9.10
2019-03-19T16:27:12.592Z,9.10
2019-03-19T16:29:41.807Z,9.10
2019-03-19T16:32:11.118Z,9.10
2019-03-19T16:34:40.334Z,9.00
2019-03-19T16:37:09.503Z,9.00
2019-03-19T16:39:38.711Z,8.90
2019-03-19T16:42:07.874Z,8.90
2019-03-19T16:44:37.101Z,8.80
2019-03-19T16:47:06.275Z,8.80
2019-03-19T16:49:35.414Z,8.70
2019-03-19T16:52:04.690Z,8.70
2019-03-19T16:54:33.891Z,8.60
2019-03-19T16:57:03.091Z,8.60
2019-03-19T16:59:32.231Z,8.50
2019-03-19T17:02:02.087Z,8.50
2019-03-19T17:04:31.404Z,8.40
2019-03-19T17:07:00.582Z,8.40
2019-03-19T17:09:29.802Z,8.30
2019-03-19T17:11:59.049Z,8.30
2019-03-19T17:14:28.201Z,8.20
2019-03-19T17:16:57.370Z,8.10
2019-03-19T17:19:26.573Z,8.00
2019-03-19T17:21:55.762Z,8.00
2019-03-19T17:24:24.899Z,8.00
2019-03-19T17:26:54.148Z,7.90
2019-03-19T17:29:23.314Z,7.90
2019-03-19T17:31:52.515Z,7.90
2019-03-19T17:34:21.738Z,7.80
2019-03-19T17:36:50.976Z,7.80
2019-03-19T17:39:20.144Z,7.70
2019-03-19T17:41:49.310Z,7.70
2019-03-19T17:44:18.558Z,7.60
2019-03-19T17:46:47.726Z,7.60
2019-03-19T17:49:16.930Z,7.50
2019-03-19T17:51:46.106Z,7.50
2019-03-19T17:54:15.242Z,7.40
2019-03-19T17:56:44.432Z,7.40
2019-03-19T17:59:13.577Z,7.30
2019-03-19T18:01:42.901Z,7.20
2019-03-19T18:04:12.042Z,7.20
2019-03-19T18:06:43.081Z,7.10
2019-03-19T18:09:12.152Z,7.00
2019-03-19T18:11:41.291Z,7.00
2019-03-19T18:14:10.462Z,7.00
2019-03-19T18:16:39.606Z,6.90
2019-03-19T18:19:08.775Z,6.80
2019-03-19T18:21:37.914Z,6.70
2019-03-19T18:24:07.085Z,6.60
2019-03-19T18:26:36.228Z,6.50
2019-03-19T18:29:05.606Z,6.50
2019-03-19T18:31:34.855Z,6.50
2019-03-19T18:34:10.215Z,6.40
2019-03-19T18:36:35.026Z,6.30
2019-03-19T18:39:06.547Z,6.30
2019-03-19T18:41:35.773Z,6.20
2019-03-19T18:44:05.029Z,6.10
2019-03-19T18:46:34.245Z,6.00
2019-03-19T18:49:03.427Z,5.90
2019-03-19T18:51:32.592Z,5.70
2019-03-19T18:54:01.758Z,5.70
2019-03-19T18:56:30.926Z,5.60
2019-03-19T18:59:00.158Z,5.50
2019-03-19T19:01:29.311Z,5.40
2019-03-19T19:03:58.579Z,5.40
2019-03-19T19:06:27.731Z,5.30
2019-03-19T19:08:56.909Z,5.30
2019-03-19T19:11:26.054Z,5.20
2019-03-19T19:13:55.307Z,5.10
2019-03-19T19:16:24.595Z,5.00
2019-03-19T19:18:53.766Z,4.90
2019-03-19T19:21:22.938Z,4.90
2019-03-19T19:23:52.154Z,4.70
2019-03-19T19:26:21.399Z,4.70
2019-03-19T19:28:50.618Z,4.60
2019-03-19T19:31:19.867Z,4.50
2019-03-19T19:33:49.006Z,4.50
2019-03-19T19:36:18.195Z,4.40
2019-03-19T19:38:47.340Z,4.30
2019-03-19T19:41:16.622Z,4.20
2019-03-19T19:43:45.759Z,4.10
2019-03-19T19:46:14.950Z,4.10
2019-03-19T19:48:44.106Z,4.10
2019-03-19T19:51:13.345Z,4.00
2019-03-19T19:53:42.491Z,4.00
2019-03-19T19:56:11.695Z,3.90
2019-03-19T19:58:40.929Z,3.90
2019-03-19T20:01:10.122Z,3.80
2019-03-19T20:03:39.268Z,3.80
2019-03-19T20:06:08.446Z,3.80
2019-03-19T20:08:37.586Z,3.80
2019-03-19T20:11:06.754Z,3.80
2019-03-19T20:13:35.908Z,3.70
2019-03-19T20:16:05.273Z,3.60
2019-03-19T20:18:34.466Z,3.60
2019-03-19T20:21:03.790Z,3.50
2019-03-19T20:23:32.939Z,3.40
2019-03-19T20:26:02.082Z,3.30
2019-03-19T20:28:31.303Z,3.30
2019-03-19T20:31:00.448Z,3.20
2019-03-19T20:33:29.612Z,3.20
2019-03-19T20:35:58.750Z,3.10
2019-03-19T20:38:27.931Z,3.10
2019-03-19T20:40:57.146Z,3.00
2019-03-19T20:43:26.414Z,2.90
2019-03-19T20:45:55.551Z,2.90
2019-03-19T20:48:24.798Z,2.80
2019-03-19T20:50:54.546Z,2.80
2019-03-19T20:53:23.713Z,2.80
2019-03-19T20:55:52.869Z,2.70
2019-03-19T20:58:22.114Z,2.70
2019-03-19T21:00:51.254Z,2.70
2019-03-19T21:03:20.430Z,2.60
2019-03-19T21:05:49.563Z,2.60
2019-03-19T21:08:18.731Z,2.50
2019-03-19T21:10:47.921Z,2.50
2019-03-19T21:13:17.087Z,2.50
2019-03-19T21:15:46.246Z,2.40
2019-03-19T21:18:15.417Z,2.40
2019-03-19T21:20:44.558Z,2.40
2019-03-19T21:23:13.810Z,2.40
2019-03-19T21:25:42.966Z,2.40
2019-03-19T21:28:14.344Z,2.30
2019-03-19T21:30:43.147Z,2.30
2019-03-19T21:33:12.311Z,2.40
2019-03-19T21:35:41.453Z,2.30
2019-03-19T21:38:10.623Z,2.30
2019-03-19T21:40:39.835Z,2.20
2019-03-19T21:43:09.014Z,2.20
2019-03-19T21:45:38.205Z,2.20
2019-03-19T21:48:07.380Z,2.20
2019-03-19T21:50:36.589Z,2.20
2019-03-19T21:53:05.835Z,2.20
2019-03-19T21:55:35.001Z,2.10
2019-03-19T21:58:04.454Z,2.10
2019-03-19T22:00:33.724Z,2.10
2019-03-19T22:03:02.872Z,2.10
2019-03-19T22:05:32.092Z,2.10
2019-03-19T22:08:01.300Z,2.00
2019-03-19T22:10:30.503Z,2.00
2019-03-19T22:12:59.954Z,1.90
2019-03-19T22:15:29.120Z,1.90
2019-03-19T22:17:58.336Z,1.80
2019-03-19T22:20:27.495Z,1.80
2019-03-19T22:22:56.647Z,1.80
2019-03-19T22:25:25.809Z,1.70
2019-03-19T22:27:55.066Z,1.70
2019-03-19T22:30:24.270Z,1.70
2019-03-19T22:32:53.415Z,1.70
2019-03-19T22:35:22.582Z,1.70
2019-03-19T22:37:51.735Z,1.70
2019-03-19T22:40:20.926Z,1.70
2019-03-19T22:42:50.150Z,1.60
2019-03-19T22:45:19.468Z,1.60
2019-03-19T22:47:48.683Z,1.60
2019-03-19T22:50:17.882Z,1.60
2019-03-19T22:52:47.238Z,1.60
2019-03-19T22:55:16.620Z,1.60
2019-03-19T22:57:46.113Z,1.60
2019-03-19T23:00:37.394Z,1.60
2019-03-19T23:03:07.016Z,1.50
2019-03-19T23:05:36.656Z,1.50
2019-03-19T23:08:05.976Z,1.50
2019-03-19T23:10:35.418Z,1.50
2019-03-19T23:13:05.067Z,1.50
2019-03-19T23:15:34.240Z,1.50
2019-03-19T23:18:03.463Z,1.50
2019-03-19T23:20:32.626Z,1.50
2019-03-19T23:23:01.784Z,1.50
2019-03-19T23:25:30.959Z,1.50
2019-03-19T23:28:00.095Z,1.50
2019-03-19T23:30:29.222Z,1.40
2019-03-19T23:32:58.486Z,1.40
2019-03-19T23:35:27.703Z,1.40
2019-03-19T23:37:56.873Z,1.30
2019-03-19T23:40:26.010Z,1.40
2019-03-19T23:42:55.231Z,1.30
2019-03-19T23:45:24.355Z,1.30
2019-03-19T23:47:53.530Z,1.30
2019-03-19T23:50:22.671Z,1.20
2019-03-19T23:52:51.836Z,1.10
2019-03-19T23:55:21.058Z,1.10
2019-03-19T23:57:50.280Z,1.10
